Terminal Aerodrome Forecast
Issued by NWS

Home | Current Version | Previous Version | Text Only | Print | Product List | Glossary On
Versions: 1 2 3 4 5 6 7 8 9 10 11 12
848
FTUS46 KMFR 301752
TAFLMT
TAF
KLMT 301752Z 3018/0118 35012KT P6SM SCT040
     FM301900 35019G28KT P6SM SCT040
     FM010300 36010KT P6SM SKC=

USA.gov is the U.S. government's official web portal to all federal, state and local government web resources and services.